createdAt,value
2022-09-30T05:32:27.616Z,9.10
2022-09-30T05:34:55.714Z,8.90
2022-09-30T05:37:22.895Z,10.07
2022-09-30T05:39:50.114Z,11.05
2022-09-30T05:42:17.621Z,11.93
2022-09-30T05:44:44.768Z,9.77
2022-09-30T05:47:11.944Z,14.43
2022-09-30T05:49:40.156Z,10.45
2022-09-30T05:52:07.873Z,9.73
2022-09-30T05:54:37.576Z,10.02
2022-09-30T05:57:09.091Z,9.43
2022-09-30T05:59:40.153Z,8.77
2022-09-30T06:02:09.920Z,8.38
2022-09-30T06:04:37.613Z,8.00
2022-09-30T06:07:10.460Z,7.82
2022-09-30T06:09:38.379Z,8.93
2022-09-30T06:12:06.255Z,9.27
2022-09-30T06:14:34.056Z,7.95
2022-09-30T06:17:03.578Z,6.75
2022-09-30T06:19:31.146Z,7.07
2022-09-30T06:22:00.389Z,6.38
2022-09-30T06:24:27.752Z,5.97
2022-09-30T06:26:55.337Z,7.45
2022-09-30T06:29:22.650Z,6.85
2022-09-30T06:31:50.155Z,6.47
2022-09-30T06:34:18.071Z,6.88
2022-09-30T06:36:45.229Z,6.55
2022-09-30T06:39:13.917Z,6.40
2022-09-30T06:41:44.097Z,6.90
2022-09-30T06:44:12.538Z,7.15
2022-09-30T06:46:52.461Z,6.82
2022-09-30T06:49:21.570Z,6.45
2022-09-30T06:51:51.500Z,6.60
2022-09-30T06:54:21.233Z,7.25
2022-09-30T06:56:49.240Z,7.95
2022-09-30T06:59:17.347Z,6.60
2022-09-30T07:01:45.301Z,6.20
2022-09-30T07:04:12.649Z,7.15
2022-09-30T07:06:40.058Z,6.35
2022-09-30T07:09:08.023Z,6.22
2022-09-30T07:11:37.391Z,6.65
2022-09-30T07:14:12.116Z,6.72
2022-09-30T07:16:39.891Z,6.93
2022-09-30T07:19:10.249Z,6.57
2022-09-30T07:21:38.656Z,6.97
2022-09-30T07:24:06.005Z,6.78
2022-09-30T07:26:33.447Z,6.38
2022-09-30T07:29:11.329Z,7.28
2022-09-30T07:31:42.923Z,6.70
2022-09-30T07:34:10.735Z,8.75
2022-09-30T07:36:39.977Z,8.82
2022-09-30T07:39:09.841Z,8.05
2022-09-30T07:41:45.336Z,8.70
2022-09-30T07:44:14.803Z,7.93
2022-09-30T07:46:44.885Z,9.00
2022-09-30T07:49:24.889Z,8.88
2022-09-30T07:51:56.904Z,8.60
2022-09-30T07:54:28.894Z,8.15
2022-09-30T07:57:09.796Z,7.82
2022-09-30T07:59:40.399Z,7.65
2022-09-30T08:02:15.227Z,8.15
2022-09-30T08:04:45.169Z,7.28
2022-09-30T08:07:15.669Z,8.48
2022-09-30T08:09:43.488Z,7.80
2022-09-30T08:12:11.152Z,8.00
2022-09-30T08:14:40.387Z,9.00
2022-09-30T08:17:07.685Z,8.35
2022-09-30T08:19:35.395Z,8.07
2022-09-30T08:24:30.968Z,8.50
2022-09-30T08:26:59.562Z,9.38
2022-09-30T08:29:54.299Z,7.82
2022-09-30T08:32:16.223Z,8.63
2022-09-30T08:34:44.273Z,7.45
2022-09-30T08:37:12.317Z,8.15
2022-09-30T08:39:40.411Z,9.35
2022-09-30T08:42:38.814Z,9.43
2022-09-30T08:45:27.263Z,7.25
2022-09-30T08:48:21.073Z,9.45
2022-09-30T08:53:37.359Z,8.45
2022-09-30T08:56:07.031Z,8.38
2022-09-30T08:58:41.419Z,8.70
2022-09-30T09:01:21.071Z,8.15
2022-09-30T09:03:48.590Z,9.73
2022-09-30T09:06:33.212Z,10.77
2022-09-30T09:09:34.511Z,7.68
2022-09-30T09:12:26.443Z,9.32
2022-09-30T09:15:33.933Z,10.02
2022-09-30T09:18:36.373Z,9.15
2022-09-30T09:21:31.921Z,9.48
2022-09-30T09:24:02.964Z,10.32
2022-09-30T09:26:36.139Z,10.50
2022-09-30T09:29:43.251Z,10.65
2022-09-30T09:32:16.515Z,10.48
2022-09-30T09:34:45.094Z,11.02
2022-09-30T09:37:49.441Z,12.20
2022-09-30T09:40:44.399Z,11.35
2022-09-30T09:43:31.759Z,11.15
2022-09-30T09:46:38.927Z,11.90
2022-09-30T09:49:28.189Z,10.00
2022-09-30T09:52:23.922Z,10.07
2022-09-30T09:54:56.638Z,11.45
2022-09-30T09:57:28.050Z,10.23
2022-09-30T10:03:19.520Z,10.88
2022-09-30T10:06:04.200Z,10.70
2022-09-30T10:08:34.953Z,9.55
2022-09-30T10:11:05.685Z,10.18
2022-09-30T10:13:48.421Z,9.98
2022-09-30T10:16:35.517Z,9.00
2022-09-30T10:19:09.499Z,9.68
2022-09-30T10:21:37.322Z,10.02
2022-09-30T10:24:27.533Z,10.35
2022-09-30T10:26:55.021Z,9.27
2022-09-30T10:29:28.423Z,11.55
2022-09-30T10:31:59.737Z,11.27
2022-09-30T10:37:15.175Z,9.85
2022-09-30T10:39:44.651Z,9.07
2022-09-30T10:42:26.816Z,9.32
2022-09-30T10:44:58.734Z,8.25
2022-09-30T10:47:30.211Z,8.30
2022-09-30T10:50:20.732Z,8.60
2022-09-30T10:52:58.264Z,8.70
2022-09-30T10:58:44.158Z,9.73
2022-09-30T11:01:25.692Z,4.93
2022-09-30T11:06:40.026Z,7.30
2022-09-30T11:09:17.512Z,6.43
2022-09-30T11:11:53.035Z,6.78
2022-09-30T11:14:31.058Z,6.78
2022-09-30T11:17:24.787Z,6.82
2022-09-30T11:20:05.826Z,7.20
2022-09-30T11:22:44.694Z,8.07
2022-09-30T11:25:15.077Z,7.90
2022-09-30T11:28:09.653Z,6.60
2022-09-30T11:30:52.823Z,6.93
2022-09-30T11:39:04.780Z,6.57
2022-09-30T11:41:39.494Z,7.03
2022-09-30T11:44:43.433Z,6.35
2022-09-30T11:47:44.770Z,6.15
2022-09-30T11:50:38.710Z,6.63
2022-09-30T11:53:32.340Z,6.28
2022-09-30T11:56:31.387Z,6.65
2022-09-30T11:59:03.468Z,6.05
2022-09-30T12:01:38.124Z,6.87
2022-09-30T12:04:31.449Z,6.18
2022-09-30T12:07:11.457Z,5.60
2022-09-30T12:09:48.215Z,5.20
2022-09-30T12:12:19.309Z,5.13
2022-09-30T12:14:51.846Z,5.75
2022-09-30T12:17:32.156Z,5.28
2022-09-30T12:20:07.277Z,6.03
2022-09-30T12:22:41.981Z,4.60
2022-09-30T12:25:19.677Z,5.90
2022-09-30T12:27:56.167Z,5.65
2022-09-30T12:30:24.836Z,4.85
2022-09-30T12:33:33.178Z,5.95
2022-09-30T12:36:14.952Z,5.10
2022-09-30T12:38:57.771Z,5.90
2022-09-30T12:41:52.965Z,4.60
2022-09-30T12:45:00.590Z,5.55
2022-09-30T12:47:38.115Z,3.95
2022-09-30T12:50:08.191Z,4.53
2022-09-30T12:52:37.055Z,4.05
2022-09-30T12:55:12.833Z,4.40
2022-09-30T12:57:43.153Z,5.45
2022-09-30T13:00:30.690Z,4.60
2022-09-30T13:03:04.225Z,4.97
2022-09-30T13:10:47.219Z,3.85
2022-09-30T13:13:33.917Z,4.20
2022-09-30T13:16:04.400Z,4.55
2022-09-30T13:21:18.140Z,5.03
2022-09-30T13:23:47.478Z,3.53
2022-09-30T13:26:36.556Z,3.75
2022-09-30T13:34:25.669Z,3.10
2022-09-30T13:39:52.424Z,3.83
2022-09-30T13:45:18.569Z,3.50
2022-09-30T13:47:51.810Z,3.17
2022-09-30T13:50:26.424Z,3.17
2022-09-30T13:52:58.876Z,3.00
2022-09-30T13:55:33.863Z,2.33
2022-09-30T13:58:34.005Z,3.13
2022-09-30T14:01:39.181Z,2.40
2022-09-30T14:04:41.926Z,2.45
2022-09-30T14:07:32.674Z,3.33
2022-09-30T14:10:29.011Z,2.15
2022-09-30T14:16:40.484Z,2.80
2022-09-30T14:19:37.663Z,2.63
2022-09-30T14:22:08.760Z,2.80
2022-09-30T14:24:40.201Z,2.47
2022-09-30T14:27:22.622Z,2.95
2022-09-30T14:30:04.950Z,2.67
2022-09-30T14:32:46.283Z,2.67
2022-09-30T14:35:20.189Z,3.25
2022-09-30T14:37:52.515Z,2.53
2022-09-30T14:40:27.651Z,2.70
2022-09-30T14:43:01.094Z,2.65
2022-09-30T14:45:33.342Z,2.90
2022-09-30T14:48:07.785Z,2.30
2022-09-30T14:50:42.472Z,2.92
2022-09-30T14:53:27.942Z,2.60
2022-09-30T14:55:57.057Z,2.28
2022-09-30T14:58:30.568Z,2.25
2022-09-30T15:01:03.828Z,2.40
2022-09-30T15:03:34.905Z,3.15
2022-09-30T15:06:02.194Z,3.20
2022-09-30T15:08:29.418Z,3.53
2022-09-30T15:10:57.308Z,3.40
2022-09-30T15:13:29.279Z,2.70
2022-09-30T15:15:56.591Z,3.00
2022-09-30T15:18:27.061Z,2.28
2022-09-30T15:20:57.083Z,2.78
2022-09-30T15:23:31.120Z,2.88
2022-09-30T15:25:59.943Z,3.47
2022-09-30T15:28:27.292Z,3.75
2022-09-30T15:30:57.762Z,4.25
2022-09-30T15:33:29.088Z,4.13
2022-09-30T15:36:07.709Z,3.85
2022-09-30T15:38:37.034Z,3.60
2022-09-30T15:41:07.408Z,3.72
2022-09-30T15:43:39.757Z,4.72
2022-09-30T15:46:35.004Z,4.47
2022-09-30T15:49:07.071Z,3.92
2022-09-30T15:51:43.411Z,4.30
2022-09-30T15:54:34.976Z,4.32
2022-09-30T15:57:24.369Z,5.70
2022-09-30T16:00:00.002Z,4.65
